createdAt,value
2022-12-05T00:01:26.701Z,55.74
2022-12-05T00:03:56.783Z,55.60
2022-12-05T00:06:25.204Z,55.63
2022-12-05T00:08:52.917Z,55.49
2022-12-05T00:11:24.663Z,55.78
2022-12-05T00:13:53.675Z,55.75
2022-12-05T00:16:23.109Z,55.59
2022-12-05T00:18:50.655Z,55.44
2022-12-05T00:21:20.735Z,55.60
2022-12-05T00:23:49.346Z,55.61
2022-12-05T00:26:17.041Z,56.14
2022-12-05T00:28:44.703Z,55.93
2022-12-05T00:31:16.310Z,55.88
2022-12-05T00:33:44.201Z,55.77
2022-12-05T00:36:17.217Z,55.92
2022-12-05T00:38:44.888Z,56.03
2022-12-05T00:41:15.357Z,55.93
2022-12-05T00:43:43.002Z,56.13
2022-12-05T00:46:16.383Z,55.87
2022-12-05T00:48:44.159Z,56.05
2022-12-05T00:51:22.642Z,56.20
2022-12-05T00:53:50.534Z,55.83
2022-12-05T00:56:21.528Z,56.22
2022-12-05T00:58:50.309Z,56.43
2022-12-05T01:01:28.888Z,56.46
2022-12-05T01:03:57.509Z,56.49
2022-12-05T01:06:26.522Z,56.68
2022-12-05T01:08:55.239Z,56.78
2022-12-05T01:11:23.306Z,56.48
2022-12-05T01:13:50.939Z,56.73
2022-12-05T01:16:21.435Z,56.54
2022-12-05T01:18:49.079Z,56.48
2022-12-05T01:21:16.725Z,56.61
2022-12-05T01:23:44.077Z,56.78
2022-12-05T01:26:14.069Z,56.87
2022-12-05T01:28:42.055Z,57.23
2022-12-05T01:31:17.978Z,56.90
2022-12-05T01:33:45.696Z,57.18
2022-12-05T01:36:13.265Z,57.21
2022-12-05T01:38:41.739Z,56.98
2022-12-05T01:41:16.353Z,57.31
2022-12-05T01:43:53.760Z,57.27
2022-12-05T01:46:21.402Z,57.32
2022-12-05T01:48:49.006Z,57.68
2022-12-05T01:51:16.481Z,57.63
2022-12-05T01:53:44.153Z,57.28
2022-12-05T01:56:12.766Z,57.59
2022-12-05T01:58:42.038Z,57.28
2022-12-05T02:01:11.678Z,57.38
2022-12-05T02:03:40.641Z,57.42
2022-12-05T02:06:08.186Z,57.48
2022-12-05T02:08:36.233Z,57.85
2022-12-05T02:11:06.858Z,57.48
2022-12-05T02:13:52.520Z,57.55
2022-12-05T02:16:38.401Z,57.55
2022-12-05T02:19:31.683Z,57.39
2022-12-05T02:22:11.496Z,57.52
2022-12-05T02:25:07.315Z,57.48
2022-12-05T02:28:01.663Z,57.95
2022-12-05T02:30:37.454Z,58.04
2022-12-05T02:33:25.225Z,58.03
2022-12-05T02:35:58.419Z,58.17
2022-12-05T02:38:28.985Z,58.54
2022-12-05T02:41:12.925Z,58.42
2022-12-05T02:43:45.859Z,58.21
2022-12-05T02:46:17.541Z,58.28
2022-12-05T02:48:46.734Z,58.28
2022-12-05T02:51:17.891Z,58.27
2022-12-05T02:53:46.819Z,58.07
2022-12-05T02:56:15.070Z,58.01
2022-12-05T02:58:48.697Z,58.40
2022-12-05T03:01:16.524Z,58.24
2022-12-05T03:03:44.489Z,58.70
2022-12-05T03:06:16.165Z,58.51
2022-12-05T03:08:56.905Z,58.57
2022-12-05T03:11:24.253Z,58.62
2022-12-05T03:13:54.329Z,58.73
2022-12-05T03:16:33.397Z,59.03
2022-12-05T03:19:06.618Z,58.69
2022-12-05T03:21:40.714Z,58.91
2022-12-05T03:24:10.266Z,59.05
2022-12-05T03:26:41.032Z,58.86
2022-12-05T03:29:18.542Z,59.08
2022-12-05T03:31:55.065Z,59.34
2022-12-05T03:34:43.818Z,59.48
2022-12-05T03:37:15.387Z,59.44
2022-12-05T03:39:45.908Z,59.50
2022-12-05T03:42:14.491Z,59.44
2022-12-05T03:44:57.654Z,59.27
2022-12-05T03:47:34.035Z,59.66
2022-12-05T03:50:07.818Z,59.99
2022-12-05T03:53:17.560Z,60.22
2022-12-05T03:55:33.766Z,60.13
2022-12-05T03:58:06.174Z,60.08
2022-12-05T04:00:37.707Z,59.85
2022-12-05T04:03:13.273Z,60.03
2022-12-05T04:05:48.376Z,59.88
2022-12-05T04:08:25.177Z,59.76
2022-12-05T04:10:56.833Z,59.66
2022-12-05T04:13:32.894Z,60.02
2022-12-05T04:16:27.922Z,60.21
2022-12-05T04:19:19.452Z,60.18
2022-12-05T04:21:50.148Z,60.08
2022-12-05T04:24:42.387Z,60.14
2022-12-05T04:27:17.950Z,60.01
2022-12-05T04:29:57.542Z,60.40
2022-12-05T04:32:27.539Z,60.72
2022-12-05T04:34:59.766Z,60.43
2022-12-05T04:37:30.816Z,60.26
2022-12-05T04:40:13.937Z,60.68
2022-12-05T04:42:42.826Z,60.61
2022-12-05T04:45:12.113Z,60.02
2022-12-05T04:47:46.104Z,60.94
2022-12-05T04:50:14.455Z,61.06
2022-12-05T04:52:43.143Z,61.20
2022-12-05T04:55:13.897Z,61.32
2022-12-05T04:58:06.761Z,61.46
2022-12-05T05:00:39.243Z,61.71
2022-12-05T05:03:13.252Z,61.65
2022-12-05T05:05:41.207Z,61.14
2022-12-05T05:08:17.873Z,61.37
2022-12-05T05:11:11.730Z,61.10
2022-12-05T05:13:39.296Z,61.17
2022-12-05T05:16:07.305Z,60.85
2022-12-05T05:18:34.734Z,61.02
2022-12-05T05:21:02.331Z,60.59
2022-12-05T05:23:29.857Z,60.83
2022-12-05T05:25:57.415Z,60.81
2022-12-05T05:28:25.028Z,61.09
2022-12-05T05:30:52.514Z,61.21
2022-12-05T05:33:20.079Z,61.21
2022-12-05T05:35:47.634Z,61.34
2022-12-05T05:38:14.912Z,61.29
2022-12-05T05:40:42.279Z,61.13
2022-12-05T05:43:09.929Z,61.23
2022-12-05T05:45:37.606Z,61.21
2022-12-05T05:48:05.161Z,61.57
2022-12-05T05:50:32.733Z,61.76
2022-12-05T05:53:00.066Z,61.17
2022-12-05T05:55:27.390Z,60.88
2022-12-05T05:57:55.173Z,61.35
2022-12-05T06:00:22.665Z,61.04
2022-12-05T06:02:50.391Z,60.93
2022-12-05T06:05:17.751Z,61.34
2022-12-05T06:07:45.092Z,61.54
2022-12-05T06:10:12.660Z,61.61
2022-12-05T06:12:39.976Z,61.03
2022-12-05T06:15:07.932Z,60.91
2022-12-05T06:17:35.561Z,60.70
2022-12-05T06:20:03.434Z,60.87
2022-12-05T06:22:30.860Z,60.94
2022-12-05T06:24:59.051Z,60.93
2022-12-05T06:27:26.575Z,61.44
2022-12-05T06:29:54.146Z,61.14
2022-12-05T06:32:21.787Z,60.69
2022-12-05T06:34:49.207Z,60.92
2022-12-05T06:37:16.501Z,60.98
2022-12-05T06:39:44.053Z,60.75
2022-12-05T06:42:11.390Z,60.60
2022-12-05T06:44:38.818Z,60.59
2022-12-05T06:47:06.404Z,60.85
2022-12-05T06:49:37.583Z,60.94
2022-12-05T06:52:05.189Z,61.02
2022-12-05T06:54:32.893Z,60.95
2022-12-05T06:57:00.298Z,60.97
2022-12-05T06:59:27.611Z,61.05
2022-12-05T07:01:55.210Z,61.58
2022-12-05T07:04:24.463Z,60.96
2022-12-05T07:06:54.539Z,61.03
2022-12-05T07:09:44.225Z,60.91
2022-12-05T07:12:17.052Z,60.71
2022-12-05T07:14:48.661Z,61.09
2022-12-05T07:17:21.051Z,61.40
2022-12-05T07:19:49.634Z,60.97
2022-12-05T07:22:18.283Z,60.90
2022-12-05T07:24:45.846Z,60.88
2022-12-05T07:27:14.713Z,60.72
2022-12-05T07:29:42.086Z,60.57
2022-12-05T07:32:09.468Z,60.44
2022-12-05T07:34:38.778Z,60.46
2022-12-05T07:37:06.346Z,60.16
2022-12-05T07:39:33.672Z,60.38
2022-12-05T07:42:01.241Z,60.54
2022-12-05T07:44:28.579Z,60.23
2022-12-05T07:46:55.939Z,60.27
2022-12-05T07:49:23.517Z,60.46
2022-12-05T07:51:50.797Z,66.77
2022-12-05T07:54:18.087Z,64.10
2022-12-05T07:56:47.901Z,62.09
2022-12-05T07:59:15.621Z,61.01
2022-12-05T08:01:43.003Z,61.27
2022-12-05T08:04:15.100Z,60.10
2022-12-05T08:06:43.166Z,60.05
2022-12-05T08:09:11.526Z,60.03
2022-12-05T08:11:39.156Z,59.63
2022-12-05T08:14:06.915Z,59.78
2022-12-05T08:16:34.664Z,59.92
2022-12-05T08:19:05.987Z,59.67
2022-12-05T08:21:33.763Z,59.78
2022-12-05T08:24:01.478Z,60.14
2022-12-05T08:26:30.876Z,59.66
2022-12-05T08:29:02.152Z,59.84
2022-12-05T08:31:31.402Z,59.84
2022-12-05T08:33:59.802Z,59.73
2022-12-05T08:36:28.991Z,59.29
2022-12-05T08:39:05.046Z,59.37
2022-12-05T08:41:32.946Z,59.38
2022-12-05T08:44:03.387Z,59.49
2022-12-05T08:46:31.570Z,59.17
2022-12-05T08:48:59.131Z,59.29
2022-12-05T08:51:27.059Z,59.17
2022-12-05T08:53:56.293Z,58.74
2022-12-05T08:56:27.038Z,59.07
2022-12-05T08:59:01.279Z,59.43
2022-12-05T09:01:33.172Z,59.05
2022-12-05T09:04:01.603Z,59.23
2022-12-05T09:06:29.823Z,58.75
2022-12-05T09:08:59.310Z,67.36
2022-12-05T09:11:30.670Z,60.32
2022-12-05T09:13:59.053Z,58.96
2022-12-05T09:16:36.935Z,57.71
2022-12-05T09:19:11.950Z,57.93
2022-12-05T09:21:39.589Z,58.30
2022-12-05T09:24:07.171Z,58.08
2022-12-05T09:26:34.583Z,58.16
2022-12-05T09:29:02.884Z,58.29
2022-12-05T09:31:30.735Z,57.89
2022-12-05T09:33:58.214Z,57.66
2022-12-05T09:36:29.033Z,58.15
2022-12-05T09:39:00.328Z,58.23
2022-12-05T09:42:04.906Z,58.36
2022-12-05T09:44:57.547Z,58.31
2022-12-05T09:47:28.560Z,58.99
2022-12-05T09:49:58.895Z,58.40
2022-12-05T09:52:29.822Z,58.50
2022-12-05T09:55:03.873Z,58.64
2022-12-05T09:57:37.353Z,58.00
2022-12-05T10:00:06.061Z,58.72
2022-12-05T10:02:47.566Z,58.21
2022-12-05T10:05:40.601Z,57.95
2022-12-05T10:08:25.237Z,58.47
2022-12-05T10:11:17.650Z,58.42
2022-12-05T10:14:13.306Z,58.41
2022-12-05T10:16:54.999Z,58.56
2022-12-05T10:19:27.648Z,58.43
2022-12-05T10:22:20.097Z,58.19
2022-12-05T10:24:54.623Z,58.04
2022-12-05T10:27:35.398Z,58.38
2022-12-05T10:30:15.008Z,57.94
2022-12-05T10:33:07.973Z,57.77
2022-12-05T10:35:38.720Z,57.47
2022-12-05T10:38:29.157Z,57.36
2022-12-05T10:41:00.038Z,57.29
2022-12-05T10:43:30.147Z,57.53
2022-12-05T10:45:58.240Z,57.37
2022-12-05T10:48:26.303Z,57.17
2022-12-05T10:50:58.003Z,57.12
2022-12-05T10:53:36.162Z,57.16
2022-12-05T10:58:56.281Z,58.04
2022-12-05T11:01:26.010Z,57.49
2022-12-05T11:03:59.967Z,57.58
2022-12-05T11:06:29.951Z,57.37
2022-12-05T11:09:05.105Z,57.14
2022-12-05T11:11:33.875Z,57.39
2022-12-05T11:14:06.704Z,57.38
2022-12-05T11:16:36.777Z,57.48
2022-12-05T11:19:25.442Z,57.12
2022-12-05T11:21:53.356Z,56.82
2022-12-05T11:24:30.404Z,58.11
2022-12-05T11:26:59.743Z,57.59
2022-12-05T11:29:38.209Z,57.15
2022-12-05T11:32:17.093Z,56.85
2022-12-05T11:34:51.243Z,56.39
2022-12-05T11:37:27.211Z,56.58
2022-12-05T11:39:54.777Z,56.27
2022-12-05T11:42:24.851Z,56.51
2022-12-05T11:45:10.958Z,56.17
2022-12-05T11:47:47.649Z,56.36
2022-12-05T11:50:40.972Z,56.05
2022-12-05T11:53:16.834Z,56.33
2022-12-05T11:55:58.433Z,56.14
2022-12-05T11:58:41.974Z,57.04
2022-12-05T12:01:30.848Z,57.14
2022-12-05T12:03:58.328Z,65.20
2022-12-05T12:06:34.273Z,60.01
2022-12-05T12:09:10.125Z,57.26
2022-12-05T12:11:50.134Z,56.78
2022-12-05T12:14:38.649Z,56.47
2022-12-05T12:17:16.276Z,56.28
2022-12-05T12:19:55.971Z,56.47
2022-12-05T12:22:48.492Z,56.30
2022-12-05T12:25:27.777Z,56.01
2022-12-05T12:28:15.048Z,56.76
2022-12-05T12:30:48.864Z,56.66
2022-12-05T12:33:40.659Z,56.82
2022-12-05T12:36:18.138Z,57.47
2022-12-05T12:38:59.548Z,57.18
2022-12-05T12:41:49.859Z,57.51
2022-12-05T12:44:45.186Z,57.23
2022-12-05T12:47:21.799Z,57.67
2022-12-05T12:50:03.989Z,58.17
2022-12-05T12:53:03.874Z,57.85
2022-12-05T12:56:09.596Z,58.01
2022-12-05T12:58:56.126Z,57.97
2022-12-05T13:01:35.623Z,60.39
2022-12-05T13:04:12.360Z,58.68
2022-12-05T13:06:48.215Z,58.07
2022-12-05T13:09:35.423Z,58.19
2022-12-05T13:12:08.143Z,58.20
2022-12-05T13:14:37.150Z,59.37
2022-12-05T13:17:05.358Z,59.10
2022-12-05T13:19:43.332Z,59.31
2022-12-05T13:22:11.710Z,58.63
2022-12-05T13:24:39.747Z,58.75
2022-12-05T13:27:09.334Z,58.78
2022-12-05T13:29:42.485Z,58.65
2022-12-05T13:32:28.734Z,58.21
2022-12-05T13:34:59.263Z,58.11
2022-12-05T13:37:48.461Z,58.41
2022-12-05T13:40:55.047Z,59.74
2022-12-05T13:43:25.009Z,60.60
2022-12-05T13:46:01.478Z,58.64
2022-12-05T13:48:31.239Z,57.93
2022-12-05T13:51:19.930Z,57.90
2022-12-05T13:53:49.374Z,58.12
2022-12-05T13:56:19.911Z,58.34
2022-12-05T13:58:47.194Z,58.26
2022-12-05T14:01:26.709Z,58.40
2022-12-05T14:03:59.076Z,60.81
2022-12-05T14:06:36.068Z,59.29
2022-12-05T14:09:24.959Z,59.25
2022-12-05T14:12:10.882Z,59.54
2022-12-05T14:15:04.073Z,57.58
2022-12-05T14:17:44.539Z,58.51
2022-12-05T14:20:39.665Z,61.13
2022-12-05T14:23:15.137Z,58.06
2022-12-05T14:26:09.100Z,56.80
2022-12-05T14:28:59.442Z,57.96
2022-12-05T14:31:38.847Z,58.11
2022-12-05T14:34:14.195Z,59.23
2022-12-05T14:36:53.396Z,57.71
2022-12-05T14:39:22.804Z,57.11
2022-12-05T14:41:57.602Z,57.40
2022-12-05T14:44:30.099Z,57.48
2022-12-05T14:47:05.587Z,57.93
2022-12-05T14:49:54.457Z,57.72
2022-12-05T14:52:26.610Z,57.95
2022-12-05T14:54:58.658Z,57.75
2022-12-05T14:57:26.160Z,58.00
2022-12-05T15:00:00.400Z,58.17
2022-12-05T15:02:40.429Z,58.06
2022-12-05T15:05:21.877Z,58.36
2022-12-05T15:07:50.625Z,58.63
2022-12-05T15:10:28.876Z,58.35
2022-12-05T15:13:11.823Z,58.16
2022-12-05T15:15:39.286Z,60.71
2022-12-05T15:18:24.018Z,59.38
2022-12-05T15:21:01.772Z,58.95
2022-12-05T15:23:49.189Z,59.16
2022-12-05T15:26:47.935Z,59.37
2022-12-05T15:29:28.196Z,60.07
2022-12-05T15:32:16.608Z,59.96
2022-12-05T15:35:05.101Z,60.00
2022-12-05T15:37:51.139Z,60.17
2022-12-05T15:40:21.902Z,60.60
2022-12-05T15:42:54.686Z,60.30
2022-12-05T15:45:27.404Z,60.76
2022-12-05T15:48:15.283Z,60.60
2022-12-05T15:50:47.987Z,60.46
2022-12-05T15:53:18.539Z,60.45
2022-12-05T15:55:48.750Z,60.77
2022-12-05T15:58:43.555Z,61.11
2022-12-05T16:01:19.191Z,60.47
2022-12-05T16:04:05.051Z,61.08
2022-12-05T16:06:34.159Z,61.38
2022-12-05T16:09:10.096Z,61.44
2022-12-05T16:11:39.076Z,61.60
2022-12-05T16:14:07.504Z,60.70
2022-12-05T16:16:37.561Z,60.02
2022-12-05T16:19:13.275Z,60.29
2022-12-05T16:21:44.930Z,59.76
2022-12-05T16:24:18.283Z,59.23
2022-12-05T16:27:23.411Z,59.34
2022-12-05T16:30:12.719Z,59.29
2022-12-05T16:32:41.948Z,58.88
2022-12-05T16:35:28.714Z,60.22
2022-12-05T16:38:23.602Z,59.67
2022-12-05T16:40:55.431Z,59.00
2022-12-05T16:43:26.200Z,58.79
2022-12-05T16:45:55.566Z,58.88
2022-12-05T16:48:31.012Z,58.68
2022-12-05T16:51:13.853Z,59.14
2022-12-05T16:53:45.924Z,59.78
2022-12-05T16:56:20.053Z,59.91
2022-12-05T16:58:47.625Z,70.58
2022-12-05T17:01:18.430Z,65.44
2022-12-05T17:03:45.901Z,60.90
2022-12-05T17:06:14.741Z,59.69
2022-12-05T17:08:42.659Z,59.87
2022-12-05T17:11:37.898Z,61.02
2022-12-05T17:14:06.890Z,60.03
2022-12-05T17:16:34.486Z,61.08
2022-12-05T17:19:01.894Z,60.92
2022-12-05T17:21:31.870Z,60.19
2022-12-05T17:24:00.032Z,59.92
2022-12-05T17:26:27.422Z,61.03
2022-12-05T17:28:54.982Z,61.14
2022-12-05T17:31:24.649Z,60.45
2022-12-05T17:33:53.937Z,60.70
2022-12-05T17:36:21.629Z,61.25
2022-12-05T17:38:49.470Z,61.01
2022-12-05T17:41:19.529Z,60.91
2022-12-05T17:43:47.598Z,60.82
2022-12-05T17:46:22.718Z,60.82
2022-12-05T17:48:51.379Z,60.36
2022-12-05T17:51:20.123Z,60.82
2022-12-05T17:53:47.852Z,60.86
2022-12-05T17:56:15.804Z,60.27
2022-12-05T17:58:44.059Z,60.28
2022-12-05T18:01:14.997Z,60.61
2022-12-05T18:03:42.918Z,60.59
2022-12-05T18:06:10.407Z,60.56
2022-12-05T18:08:42.050Z,60.75
2022-12-05T18:11:10.467Z,60.52
2022-12-05T18:13:38.814Z,60.72
2022-12-05T18:16:06.527Z,60.79
2022-12-05T18:18:34.229Z,60.45
2022-12-05T18:21:10.246Z,60.37
2022-12-05T18:23:38.917Z,60.56
2022-12-05T18:26:07.821Z,60.58
2022-12-05T18:28:37.248Z,60.29
2022-12-05T18:31:11.187Z,60.84
2022-12-05T18:33:39.241Z,60.66
2022-12-05T18:36:09.422Z,60.69
2022-12-05T18:38:37.625Z,61.06
2022-12-05T18:41:05.942Z,61.23
2022-12-05T18:43:33.794Z,61.31
2022-12-05T18:46:03.598Z,61.73
2022-12-05T18:48:43.778Z,60.96
2022-12-05T18:51:19.557Z,61.22
2022-12-05T18:53:52.269Z,65.05
2022-12-05T18:56:34.691Z,64.26
2022-12-05T18:59:16.617Z,62.29
2022-12-05T19:01:44.915Z,61.61
2022-12-05T19:04:15.284Z,61.34
2022-12-05T19:06:47.928Z,65.58
2022-12-05T19:09:17.023Z,64.02
2022-12-05T19:11:47.925Z,62.32
2022-12-05T19:14:18.663Z,60.57
2022-12-05T19:16:48.312Z,60.57
2022-12-05T19:19:17.118Z,60.37
2022-12-05T19:21:45.106Z,60.82
2022-12-05T19:24:17.401Z,60.75
2022-12-05T19:26:45.556Z,61.83
2022-12-05T19:29:14.107Z,61.71
2022-12-05T19:31:42.117Z,61.59
2022-12-05T19:34:10.604Z,62.11
2022-12-05T19:36:45.708Z,62.26
2022-12-05T19:39:16.313Z,62.59
2022-12-05T19:41:43.958Z,62.09
2022-12-05T19:44:12.726Z,61.77
2022-12-05T19:46:40.746Z,62.15
2022-12-05T19:49:12.169Z,62.23
2022-12-05T19:51:40.152Z,62.16
2022-12-05T19:54:08.946Z,61.87
2022-12-05T19:56:36.551Z,62.00
2022-12-05T19:59:05.167Z,61.98
2022-12-05T20:01:34.869Z,62.20
2022-12-05T20:04:05.957Z,61.96
2022-12-05T20:06:35.790Z,62.08
2022-12-05T20:09:04.070Z,61.98
2022-12-05T20:11:31.441Z,61.49
2022-12-05T20:14:00.635Z,61.86
2022-12-05T20:16:29.193Z,62.08
2022-12-05T20:18:58.995Z,61.87
2022-12-05T20:21:29.462Z,62.26
2022-12-05T20:23:58.741Z,62.24
2022-12-05T20:26:28.830Z,62.32
2022-12-05T20:29:00.505Z,62.50
2022-12-05T20:31:30.714Z,62.23
2022-12-05T20:33:58.294Z,62.29
2022-12-05T20:36:28.075Z,62.09
2022-12-05T20:38:57.129Z,61.90
2022-12-05T20:41:25.015Z,62.45
2022-12-05T20:43:55.437Z,62.23
2022-12-05T20:46:23.292Z,62.27
2022-12-05T20:48:51.365Z,62.28
2022-12-05T20:51:23.710Z,62.17
2022-12-05T20:53:51.766Z,61.98
2022-12-05T20:56:21.424Z,63.04
2022-12-05T20:58:50.553Z,63.03
2022-12-05T21:01:19.773Z,62.94
2022-12-05T21:03:49.751Z,62.36
2022-12-05T21:06:20.060Z,62.42
2022-12-05T21:08:47.751Z,62.83
2022-12-05T21:11:15.264Z,62.78
2022-12-05T21:13:42.673Z,62.81
2022-12-05T21:16:16.745Z,63.12
2022-12-05T21:18:44.497Z,63.50
2022-12-05T21:21:15.288Z,63.29
2022-12-05T21:23:43.841Z,63.18
2022-12-05T21:26:14.015Z,62.58
2022-12-05T21:28:42.863Z,62.90
2022-12-05T21:31:20.718Z,63.11
2022-12-05T21:33:53.351Z,62.75
2022-12-05T21:36:21.417Z,62.83
2022-12-05T21:38:55.432Z,62.88
2022-12-05T21:41:24.571Z,62.71
2022-12-05T21:43:55.382Z,62.61
2022-12-05T21:46:26.795Z,62.40
2022-12-05T21:48:54.538Z,62.17
2022-12-05T21:51:22.071Z,62.51
2022-12-05T21:53:50.055Z,62.14
2022-12-05T21:56:22.617Z,62.28
2022-12-05T21:58:50.349Z,62.55
2022-12-05T22:01:23.272Z,62.53
2022-12-05T22:03:52.758Z,62.49
2022-12-05T22:06:20.158Z,62.37
2022-12-05T22:08:47.511Z,62.36
2022-12-05T22:11:17.763Z,62.28
2022-12-05T22:13:45.830Z,62.25
2022-12-05T22:16:13.289Z,62.06
2022-12-05T22:18:41.601Z,61.99
2022-12-05T22:21:12.784Z,62.09
2022-12-05T22:23:40.128Z,62.13
2022-12-05T22:26:09.904Z,61.61
2022-12-05T22:28:37.349Z,61.64
2022-12-05T22:31:07.430Z,61.80
2022-12-05T22:33:36.632Z,61.85
2022-12-05T22:36:06.867Z,62.00
2022-12-05T22:38:37.502Z,61.86
2022-12-05T22:41:15.590Z,61.78
2022-12-05T22:43:44.429Z,61.97
2022-12-05T22:46:17.962Z,61.87
2022-12-05T22:48:46.565Z,61.81
2022-12-05T22:51:14.720Z,61.80
2022-12-05T22:53:42.416Z,61.62
2022-12-05T22:56:14.876Z,61.56
2022-12-05T22:58:43.586Z,61.56
2022-12-05T23:01:22.474Z,61.04
2022-12-05T23:03:54.947Z,61.54
2022-12-05T23:06:22.266Z,61.78
2022-12-05T23:08:49.911Z,61.68
2022-12-05T23:11:18.515Z,61.37
2022-12-05T23:13:46.978Z,61.24
2022-12-05T23:16:15.785Z,61.33
2022-12-05T23:18:49.561Z,61.69
2022-12-05T23:21:35.107Z,61.75
2022-12-05T23:24:04.898Z,62.06
2022-12-05T23:26:37.585Z,62.14
2022-12-05T23:29:04.733Z,62.18
2022-12-05T23:31:32.374Z,61.91
2022-12-05T23:34:03.440Z,62.19
2022-12-05T23:36:34.661Z,62.19
2022-12-05T23:39:02.482Z,62.77
2022-12-05T23:41:29.867Z,62.59
2022-12-05T23:43:57.108Z,62.60
2022-12-05T23:46:26.096Z,62.38
2022-12-05T23:48:53.590Z,62.61
2022-12-05T23:51:22.771Z,62.61
2022-12-05T23:53:55.733Z,62.65
2022-12-05T23:56:24.924Z,63.00
2022-12-05T23:58:53.627Z,62.83
